createdAt,value
2018-01-11T00:01:28.068Z,12.90
2018-01-11T00:03:55.529Z,12.80
2018-01-11T00:06:22.986Z,12.80
2018-01-11T00:08:50.421Z,12.80
2018-01-11T00:11:17.866Z,12.80
2018-01-11T00:13:46.096Z,12.70
2018-01-11T00:16:13.549Z,12.70
2018-01-11T00:18:40.986Z,12.70
2018-01-11T00:21:09.336Z,12.50
2018-01-11T00:23:37.545Z,12.80
2018-01-11T00:26:04.987Z,12.80
2018-01-11T00:28:32.417Z,13.00
2018-01-11T00:31:00.617Z,13.10
2018-01-11T00:33:28.085Z,13.10
2018-01-11T00:35:56.580Z,13.10
2018-01-11T00:38:24.026Z,13.10
2018-01-11T00:40:51.450Z,13.20
2018-01-11T00:43:19.659Z,13.30
2018-01-11T00:45:47.092Z,13.30
2018-01-11T00:48:15.297Z,13.30
2018-01-11T00:50:42.729Z,13.30
2018-01-11T00:53:10.974Z,13.30
2018-01-11T00:55:38.421Z,13.20
2018-01-11T00:58:06.663Z,13.30
2018-01-11T01:00:34.120Z,13.20
2018-01-11T01:03:01.564Z,13.10
2018-01-11T01:05:29.761Z,13.00
2018-01-11T01:07:57.177Z,13.00
2018-01-11T01:10:25.422Z,13.00
2018-01-11T01:12:52.871Z,13.00
2018-01-11T01:15:20.304Z,13.00
2018-01-11T01:17:47.742Z,13.00
2018-01-11T01:20:15.177Z,13.10
2018-01-11T01:22:43.392Z,13.20
2018-01-11T01:25:10.830Z,13.20
2018-01-11T01:27:38.266Z,13.20
2018-01-11T01:30:06.482Z,13.20
2018-01-11T01:32:33.905Z,13.20
2018-01-11T01:35:02.129Z,13.20
2018-01-11T01:37:29.594Z,13.10
2018-01-11T01:39:57.037Z,13.10
2018-01-11T01:42:24.466Z,13.10
2018-01-11T01:44:51.910Z,13.10
2018-01-11T01:47:20.161Z,13.00
2018-01-11T01:49:47.653Z,13.00
2018-01-11T01:52:15.087Z,13.00
2018-01-11T01:54:42.529Z,13.00
2018-01-11T01:57:10.025Z,12.90
2018-01-11T01:59:38.228Z,12.90
2018-01-11T02:02:05.674Z,12.90
2018-01-11T02:04:33.115Z,12.90
2018-01-11T02:07:00.544Z,12.80
2018-01-11T02:09:27.994Z,12.90
2018-01-11T02:11:56.208Z,12.80
2018-01-11T02:14:23.697Z,12.80
2018-01-11T02:16:51.109Z,12.80
2018-01-11T02:19:19.334Z,12.70
2018-01-11T02:21:46.764Z,12.70
2018-01-11T02:24:14.274Z,12.70
2018-01-11T02:26:41.709Z,12.70
2018-01-11T02:29:10.273Z,12.60
2018-01-11T02:31:37.703Z,12.60
2018-01-11T02:34:05.944Z,12.60
2018-01-11T02:36:33.426Z,12.50
2018-01-11T02:39:00.840Z,12.50
2018-01-11T02:41:28.292Z,12.50
2018-01-11T02:43:55.713Z,12.50
2018-01-11T02:46:23.151Z,12.50
2018-01-11T02:48:51.341Z,12.50
2018-01-11T02:51:19.547Z,12.40
2018-01-11T02:53:46.979Z,12.40
2018-01-11T02:56:14.424Z,12.40
2018-01-11T02:58:41.850Z,12.40
2018-01-11T03:01:09.520Z,12.40
2018-01-11T03:03:36.941Z,12.30
2018-01-11T03:06:04.390Z,12.30
2018-01-11T03:08:31.840Z,12.20
2018-01-11T03:11:00.045Z,12.30
2018-01-11T03:13:27.468Z,12.20
2018-01-11T03:15:54.969Z,12.20
2018-01-11T03:18:22.395Z,12.20
2018-01-11T03:20:49.829Z,12.20
2018-01-11T03:23:17.260Z,12.20
2018-01-11T03:25:44.698Z,12.20
2018-01-11T03:28:12.141Z,12.10
2018-01-11T03:30:39.599Z,12.10
2018-01-11T03:33:07.057Z,12.10
2018-01-11T03:35:34.494Z,12.10
2018-01-11T03:38:01.932Z,12.20
2018-01-11T03:40:31.118Z,12.20
2018-01-11T03:42:59.332Z,12.10
2018-01-11T03:45:26.785Z,12.10
2018-01-11T03:47:54.206Z,12.10
2018-01-11T03:50:22.459Z,12.20
2018-01-11T03:52:49.837Z,12.20
2018-01-11T03:55:18.040Z,12.30
2018-01-11T03:57:45.474Z,12.20
2018-01-11T04:00:13.672Z,12.30
2018-01-11T04:02:41.117Z,12.30
2018-01-11T04:05:09.497Z,12.40
2018-01-11T04:07:37.680Z,12.40
2018-01-11T04:10:05.113Z,12.40
2018-01-11T04:12:33.324Z,12.40
2018-01-11T04:15:00.769Z,12.40
2018-01-11T04:17:28.208Z,12.40
2018-01-11T04:19:56.416Z,12.50
2018-01-11T04:22:23.861Z,12.40
2018-01-11T04:24:51.294Z,12.50
2018-01-11T04:27:19.512Z,12.50
2018-01-11T04:29:46.972Z,12.50
2018-01-11T04:32:14.404Z,12.50
2018-01-11T04:34:41.856Z,12.50
2018-01-11T04:37:09.720Z,12.60
2018-01-11T04:39:37.918Z,12.60
2018-01-11T04:42:05.348Z,12.60
2018-01-11T04:44:32.781Z,12.60
2018-01-11T04:47:00.229Z,12.60
2018-01-11T04:49:27.673Z,12.60
2018-01-11T04:51:55.105Z,12.60
2018-01-11T04:54:22.537Z,12.60
2018-01-11T04:56:49.987Z,12.50
2018-01-11T04:59:18.183Z,12.60
2018-01-11T05:01:45.620Z,12.60
2018-01-11T05:04:13.853Z,12.60
2018-01-11T05:06:41.290Z,12.60
2018-01-11T05:09:09.693Z,12.60
2018-01-11T05:11:37.133Z,12.60
2018-01-11T05:14:04.581Z,12.60
2018-01-11T05:16:32.022Z,12.60
2018-01-11T05:18:59.450Z,12.60
2018-01-11T05:21:26.881Z,12.60
2018-01-11T05:23:54.325Z,12.70
2018-01-11T05:26:21.753Z,12.60
2018-01-11T05:28:49.188Z,12.60
2018-01-11T05:31:17.420Z,12.70
2018-01-11T05:33:44.861Z,12.70
2018-01-11T05:36:12.292Z,12.60
2018-01-11T05:38:39.733Z,12.70
2018-01-11T05:41:07.937Z,12.70
2018-01-11T05:43:35.862Z,12.70
2018-01-11T05:46:03.296Z,12.70
2018-01-11T05:48:30.776Z,12.80
2018-01-11T05:50:58.222Z,12.80
2018-01-11T05:53:25.667Z,12.80
2018-01-11T05:55:53.861Z,12.90
2018-01-11T05:58:21.301Z,12.90
2018-01-11T06:00:48.768Z,12.90
2018-01-11T06:03:16.225Z,12.90
2018-01-11T06:05:43.661Z,12.90
2018-01-11T06:08:11.093Z,13.00
2018-01-11T06:10:38.525Z,13.00
2018-01-11T06:13:07.369Z,13.00
2018-01-11T06:15:34.801Z,12.90
2018-01-11T06:18:02.252Z,12.90
2018-01-11T06:20:30.875Z,12.80
2018-01-11T06:22:58.877Z,12.80
2018-01-11T06:25:26.389Z,12.80
2018-01-11T06:27:54.345Z,12.80
2018-01-11T06:30:21.756Z,12.80
2018-01-11T06:32:49.193Z,12.80
2018-01-11T06:35:16.621Z,12.90
2018-01-11T06:37:44.093Z,12.90
2018-01-11T06:40:11.508Z,12.80
2018-01-11T06:42:44.588Z,12.90
2018-01-11T06:45:12.002Z,12.90
2018-01-11T06:47:39.453Z,12.90
2018-01-11T06:50:06.870Z,12.90
2018-01-11T06:52:35.098Z,12.90
2018-01-11T06:55:02.513Z,12.80
2018-01-11T06:57:29.956Z,12.90
2018-01-11T06:59:58.170Z,12.90
2018-01-11T07:02:25.622Z,12.90
2018-01-11T07:04:53.052Z,12.90
2018-01-11T07:07:20.494Z,12.90
2018-01-11T07:09:48.693Z,12.90
2018-01-11T07:12:16.128Z,12.90
2018-01-11T07:14:44.329Z,12.80
2018-01-11T07:17:11.822Z,12.80
2018-01-11T07:19:39.217Z,12.90
2018-01-11T07:22:07.417Z,12.90
2018-01-11T07:24:34.858Z,12.90
2018-01-11T07:27:03.048Z,12.90
2018-01-11T07:29:30.520Z,12.90
2018-01-11T07:31:57.937Z,12.90
2018-01-11T07:34:26.141Z,12.80
2018-01-11T07:36:53.568Z,12.80
2018-01-11T07:39:21.769Z,12.80
2018-01-11T07:41:49.207Z,12.80
2018-01-11T07:44:17.425Z,12.80
2018-01-11T07:46:44.868Z,12.80
2018-01-11T07:49:12.978Z,12.90
2018-01-11T07:51:40.428Z,12.90
2018-01-11T07:54:08.537Z,12.80
2018-01-11T07:56:36.741Z,12.50
2018-01-11T07:59:04.172Z,12.50
2018-01-11T08:01:32.401Z,12.50
2018-01-11T08:03:59.858Z,12.50
2018-01-11T08:06:27.300Z,12.30
2018-01-11T08:08:54.728Z,12.40
2018-01-11T08:11:22.933Z,12.50
2018-01-11T08:13:50.400Z,12.50
2018-01-11T08:16:17.833Z,12.60
2018-01-11T08:18:45.265Z,12.70
2018-01-11T08:21:13.462Z,13.00
2018-01-11T08:23:40.905Z,13.00
2018-01-11T08:26:10.041Z,13.10
2018-01-11T08:28:37.477Z,13.10
2018-01-11T08:31:05.289Z,13.10
2018-01-11T08:33:32.732Z,12.90
2018-01-11T08:36:00.170Z,12.70
2018-01-11T08:38:27.605Z,12.60
2018-01-11T08:40:55.034Z,12.70
2018-01-11T08:43:22.485Z,12.90
2018-01-11T08:45:49.939Z,13.00
2018-01-11T08:48:17.344Z,13.00
2018-01-11T08:50:44.784Z,13.20
2018-01-11T08:53:12.980Z,13.50
2018-01-11T08:55:40.425Z,13.50
2018-01-11T08:58:07.860Z,13.60
2018-01-11T09:00:35.299Z,13.70
2018-01-11T09:03:02.750Z,13.70
2018-01-11T09:05:30.959Z,13.80
2018-01-11T09:07:59.189Z,13.80
2018-01-11T09:10:26.625Z,13.80
2018-01-11T09:12:54.058Z,13.90
2018-01-11T09:15:22.277Z,14.10
2018-01-11T09:17:49.701Z,14.00
2018-01-11T09:20:17.132Z,14.10
2018-01-11T09:22:45.347Z,14.20
2018-01-11T09:25:12.793Z,14.20
2018-01-11T09:27:41.166Z,14.30
2018-01-11T09:30:10.279Z,14.30
2018-01-11T09:32:37.704Z,14.30
2018-01-11T09:35:05.907Z,14.20
2018-01-11T09:37:33.416Z,14.20
2018-01-11T09:40:00.853Z,14.20
2018-01-11T09:42:28.281Z,14.20
2018-01-11T09:44:55.709Z,14.20
2018-01-11T09:47:23.936Z,14.10
2018-01-11T09:49:51.367Z,14.10
2018-01-11T09:52:18.813Z,14.00
2018-01-11T09:54:46.261Z,14.00
2018-01-11T09:57:14.448Z,13.90
2018-01-11T09:59:41.903Z,13.90
2018-01-11T10:02:10.029Z,14.00
2018-01-11T10:04:37.476Z,14.10
2018-01-11T10:07:04.899Z,14.20
2018-01-11T10:09:32.402Z,14.00
2018-01-11T10:11:59.836Z,14.00
2018-01-11T10:14:27.265Z,14.00
2018-01-11T10:16:54.709Z,14.00
2018-01-11T10:19:22.926Z,13.90
2018-01-11T10:21:50.443Z,13.90
2018-01-11T10:24:18.637Z,13.90
2018-01-11T10:26:46.079Z,13.90
2018-01-11T10:29:14.265Z,13.90
2018-01-11T10:31:41.693Z,13.90
2018-01-11T10:34:10.824Z,14.10
2018-01-11T10:36:38.260Z,14.00
2018-01-11T10:39:06.456Z,14.10
2018-01-11T10:41:33.893Z,14.00
2018-01-11T10:44:02.094Z,14.00
2018-01-11T10:46:29.534Z,14.00
2018-01-11T10:48:56.960Z,14.10
2018-01-11T10:51:24.391Z,14.10
2018-01-11T10:53:51.818Z,14.20
2018-01-11T10:56:19.257Z,14.20
2018-01-11T10:58:47.476Z,14.10
2018-01-11T11:01:20.540Z,14.10
2018-01-11T11:03:47.977Z,14.20
2018-01-11T11:06:16.169Z,14.40
2018-01-11T11:08:43.606Z,14.40
2018-01-11T11:11:11.853Z,14.40
2018-01-11T11:13:39.285Z,14.50
2018-01-11T11:16:09.598Z,14.50
2018-01-11T11:18:37.047Z,14.60
2018-01-11T11:21:04.473Z,14.60
2018-01-11T11:23:32.707Z,14.70
2018-01-11T11:26:00.122Z,14.70
2018-01-11T11:28:27.561Z,14.80
2018-01-11T11:30:55.012Z,14.70
2018-01-11T11:33:22.437Z,14.80
2018-01-11T11:35:49.872Z,14.70
2018-01-11T11:38:17.297Z,14.60
2018-01-11T11:40:45.504Z,14.80
2018-01-11T11:43:12.984Z,14.80
2018-01-11T11:45:41.193Z,14.90
2018-01-11T11:48:08.648Z,14.80
2018-01-11T11:50:36.089Z,14.80
2018-01-11T11:53:03.528Z,14.80
2018-01-11T11:55:30.956Z,14.70
2018-01-11T11:57:58.392Z,14.70
2018-01-11T12:00:26.585Z,14.80
2018-01-11T12:02:54.020Z,14.80
2018-01-11T12:05:22.244Z,14.80
2018-01-11T12:07:49.700Z,14.70
2018-01-11T12:10:17.137Z,14.70
2018-01-11T12:12:44.573Z,14.70
2018-01-11T12:15:12.882Z,14.60
2018-01-11T12:17:40.301Z,14.60
2018-01-11T12:20:07.726Z,14.70
2018-01-11T12:22:35.157Z,14.70
2018-01-11T12:25:02.596Z,14.70
2018-01-11T12:27:30.034Z,14.70
2018-01-11T12:29:58.233Z,14.60
2018-01-11T12:32:25.663Z,14.60
2018-01-11T12:34:53.863Z,14.70
2018-01-11T12:37:21.289Z,14.70
2018-01-11T12:39:49.505Z,14.70
2018-01-11T12:42:17.001Z,14.70
2018-01-11T12:44:44.377Z,14.70
2018-01-11T12:47:12.590Z,14.70
2018-01-11T12:49:40.013Z,14.70
2018-01-11T12:52:08.227Z,14.70
2018-01-11T12:54:35.664Z,14.70
2018-01-11T12:57:03.864Z,14.70
2018-01-11T12:59:32.197Z,14.70
2018-01-11T13:02:00.412Z,14.60
2018-01-11T13:04:27.865Z,14.60
2018-01-11T13:06:55.302Z,14.70
2018-01-11T13:09:22.737Z,14.70
2018-01-11T13:11:50.944Z,14.70
2018-01-11T13:14:18.392Z,14.70
2018-01-11T13:16:46.581Z,14.70
2018-01-11T13:19:14.012Z,14.70
2018-01-11T13:21:42.205Z,14.70
2018-01-11T13:24:11.004Z,14.60
2018-01-11T13:26:38.433Z,14.60
2018-01-11T13:29:06.623Z,14.70
2018-01-11T13:31:34.061Z,14.70
2018-01-11T13:34:02.248Z,14.60
2018-01-11T13:36:30.453Z,14.60
2018-01-11T13:38:57.877Z,14.60
2018-01-11T13:41:26.086Z,14.60
2018-01-11T13:43:53.517Z,14.60
2018-01-11T13:46:20.959Z,14.60
2018-01-11T13:48:49.151Z,14.50
2018-01-11T13:51:17.341Z,14.50
2018-01-11T13:53:44.787Z,14.50
2018-01-11T13:56:12.226Z,14.50
2018-01-11T13:58:40.425Z,14.40
2018-01-11T14:01:07.857Z,14.40
2018-01-11T14:03:36.071Z,14.50
2018-01-11T14:06:03.492Z,14.50
2018-01-11T14:08:31.704Z,14.50
2018-01-11T14:10:59.194Z,14.50
2018-01-11T14:13:27.398Z,14.60
2018-01-11T14:15:55.597Z,14.60
2018-01-11T14:18:23.050Z,14.60
2018-01-11T14:20:50.472Z,14.50
2018-01-11T14:23:17.909Z,14.50
2018-01-11T14:25:45.339Z,14.60
2018-01-11T14:28:12.820Z,14.60
2018-01-11T14:30:40.200Z,14.70
2018-01-11T14:33:07.633Z,14.70
2018-01-11T14:35:35.097Z,14.70
2018-01-11T14:38:02.534Z,14.60
2018-01-11T14:40:29.966Z,14.60
2018-01-11T14:42:57.396Z,14.50
2018-01-11T14:45:25.608Z,14.50
2018-01-11T14:47:53.037Z,14.40
2018-01-11T14:50:21.233Z,14.50
2018-01-11T14:52:48.664Z,14.50
2018-01-11T14:55:16.874Z,14.50
2018-01-11T14:57:44.300Z,14.50
2018-01-11T15:00:12.511Z,14.50
2018-01-11T15:02:39.949Z,14.50
2018-01-11T15:05:08.145Z,14.50
2018-01-11T15:07:35.591Z,14.50
2018-01-11T15:10:03.023Z,14.50
2018-01-11T15:12:31.227Z,14.40
2018-01-11T15:14:58.693Z,14.30
2018-01-11T15:17:26.141Z,14.30
2018-01-11T15:19:53.584Z,14.30
2018-01-11T15:22:21.025Z,14.30
2018-01-11T15:24:49.216Z,14.20
2018-01-11T15:27:16.698Z,14.20
2018-01-11T15:29:44.128Z,14.20
2018-01-11T15:32:12.317Z,14.10
2018-01-11T15:34:39.748Z,14.10
2018-01-11T15:37:07.958Z,14.10
2018-01-11T15:39:35.457Z,14.00
2018-01-11T15:42:02.831Z,14.00
2018-01-11T15:44:30.266Z,14.00
2018-01-11T15:46:57.693Z,14.00
2018-01-11T15:49:25.122Z,13.90
2018-01-11T15:51:53.330Z,13.90
2018-01-11T15:54:20.768Z,13.90
2018-01-11T15:56:48.192Z,13.80
2018-01-11T15:59:16.389Z,13.80
2018-01-11T16:01:43.825Z,13.80
2018-01-11T16:04:12.053Z,13.80
2018-01-11T16:06:39.469Z,13.80
2018-01-11T16:09:07.708Z,13.70
2018-01-11T16:11:35.133Z,13.70
2018-01-11T16:14:02.570Z,13.70
2018-01-11T16:16:30.009Z,13.60
2018-01-11T16:18:58.212Z,13.70
2018-01-11T16:21:25.645Z,13.60
2018-01-11T16:23:53.859Z,13.70
2018-01-11T16:26:21.272Z,13.60
2018-01-11T16:28:49.477Z,13.60
2018-01-11T16:31:16.908Z,13.60
2018-01-11T16:33:45.109Z,13.60
2018-01-11T16:36:12.549Z,13.60
2018-01-11T16:38:40.752Z,13.60
2018-01-11T16:41:08.205Z,13.60
2018-01-11T16:43:35.661Z,13.60
2018-01-11T16:46:03.096Z,13.50
2018-01-11T16:48:31.313Z,13.60
2018-01-11T16:50:58.741Z,13.50
2018-01-11T16:53:26.184Z,13.50
2018-01-11T16:55:54.537Z,13.50
2018-01-11T16:58:21.988Z,13.50
2018-01-11T17:00:49.425Z,13.50
2018-01-11T17:03:16.856Z,13.50
2018-01-11T17:05:44.293Z,13.50
2018-01-11T17:08:12.497Z,13.50
2018-01-11T17:10:39.917Z,13.50
2018-01-11T17:13:08.117Z,13.50
2018-01-11T17:15:35.553Z,13.50
2018-01-11T17:18:03.750Z,13.40
2018-01-11T17:20:31.191Z,13.40
2018-01-11T17:22:59.387Z,13.40
2018-01-11T17:25:26.830Z,13.40
2018-01-11T17:27:54.261Z,13.40
2018-01-11T17:30:22.474Z,13.40
2018-01-11T17:32:49.903Z,13.30
2018-01-11T17:35:18.113Z,13.30
2018-01-11T17:37:45.548Z,13.30
2018-01-11T17:40:12.976Z,13.30
2018-01-11T17:42:40.409Z,13.30
2018-01-11T17:45:07.858Z,13.30
2018-01-11T17:47:35.280Z,13.30
2018-01-11T17:50:02.734Z,13.30
2018-01-11T17:52:30.179Z,13.30
2018-01-11T17:54:57.598Z,13.20
2018-01-11T17:57:25.026Z,13.20
2018-01-11T17:59:52.476Z,13.20
2018-01-11T18:02:19.918Z,13.20
2018-01-11T18:04:48.124Z,13.20
2018-01-11T18:07:15.553Z,13.20
2018-01-11T18:09:42.992Z,13.20
2018-01-11T18:12:10.630Z,13.20
2018-01-11T18:14:38.098Z,13.20
2018-01-11T18:17:05.513Z,13.10
2018-01-11T18:19:32.948Z,13.10
2018-01-11T18:22:00.447Z,13.20
2018-01-11T18:24:27.870Z,13.10
2018-01-11T18:26:56.121Z,13.10
2018-01-11T18:29:23.547Z,13.10
2018-01-11T18:31:50.959Z,13.10
2018-01-11T18:34:18.425Z,13.10
2018-01-11T18:36:45.849Z,13.10
2018-01-11T18:39:14.061Z,13.10
2018-01-11T18:41:41.501Z,13.10
2018-01-11T18:44:10.625Z,13.10
2018-01-11T18:46:38.826Z,13.10
2018-01-11T18:49:06.261Z,13.00
2018-01-11T18:51:33.695Z,13.00
2018-01-11T18:54:01.125Z,13.00
2018-01-11T18:56:29.340Z,13.10
2018-01-11T18:58:56.771Z,13.10
2018-01-11T19:01:24.962Z,13.20
2018-01-11T19:03:52.388Z,13.20
2018-01-11T19:06:20.589Z,13.20
2018-01-11T19:08:48.012Z,13.20
2018-01-11T19:11:16.216Z,13.20
2018-01-11T19:13:43.635Z,13.20
2018-01-11T19:16:11.065Z,13.20
2018-01-11T19:18:38.522Z,13.20
2018-01-11T19:21:05.949Z,13.20
2018-01-11T19:23:33.393Z,13.30
2018-01-11T19:26:00.830Z,13.20
2018-01-11T19:28:28.266Z,13.20
2018-01-11T19:30:55.700Z,13.20
2018-01-11T19:33:23.165Z,13.20
2018-01-11T19:35:50.605Z,13.20
2018-01-11T19:38:18.084Z,13.20
2018-01-11T19:40:45.521Z,13.20
2018-01-11T19:43:12.952Z,13.20
2018-01-11T19:45:41.157Z,13.10
2018-01-11T19:48:08.589Z,13.10
2018-01-11T19:50:36.026Z,13.10
2018-01-11T19:53:04.217Z,13.10
2018-01-11T19:55:32.424Z,13.00
2018-01-11T19:57:59.844Z,13.00
2018-01-11T20:00:28.049Z,13.00
2018-01-11T20:02:56.374Z,13.00
2018-01-11T20:05:23.824Z,13.00
2018-01-11T20:07:51.262Z,12.90
2018-01-11T20:10:18.698Z,12.90
2018-01-11T20:12:46.121Z,12.90
2018-01-11T20:15:14.320Z,12.90
2018-01-11T20:17:41.753Z,12.90
2018-01-11T20:20:10.874Z,12.90
2018-01-11T20:22:38.298Z,12.90
2018-01-11T20:25:05.736Z,12.90
2018-01-11T20:27:33.165Z,12.90
2018-01-11T20:30:00.817Z,13.00
2018-01-11T20:32:28.248Z,13.00
2018-01-11T20:34:55.676Z,12.90
2018-01-11T20:37:23.106Z,12.90
2018-01-11T20:39:50.533Z,12.90
2018-01-11T20:42:17.969Z,12.90
2018-01-11T20:44:46.180Z,13.00
2018-01-11T20:47:13.619Z,13.00
2018-01-11T20:49:41.049Z,13.00
2018-01-11T20:52:09.248Z,13.00
2018-01-11T20:54:36.678Z,13.00
2018-01-11T20:57:04.141Z,13.00
2018-01-11T20:59:31.581Z,13.00
2018-01-11T21:01:59.002Z,13.00
2018-01-11T21:04:26.433Z,12.90
2018-01-11T21:06:53.888Z,13.00
2018-01-11T21:09:22.061Z,13.00
2018-01-11T21:11:50.270Z,13.00
2018-01-11T21:14:17.690Z,12.90
2018-01-11T21:16:45.908Z,12.90
2018-01-11T21:19:13.350Z,12.90
2018-01-11T21:21:40.793Z,12.90
2018-01-11T21:24:08.241Z,12.90
2018-01-11T21:26:35.728Z,12.90
2018-01-11T21:29:03.097Z,12.90
2018-01-11T21:31:30.537Z,12.90
2018-01-11T21:33:57.965Z,12.90
2018-01-11T21:36:26.169Z,12.70
2018-01-11T21:38:53.613Z,12.70
2018-01-11T21:41:21.060Z,12.70
2018-01-11T21:43:48.496Z,12.70
2018-01-11T21:46:15.942Z,12.60
2018-01-11T21:48:43.380Z,12.60
2018-01-11T21:51:11.040Z,12.60
2018-01-11T21:53:38.480Z,12.50
2018-01-11T21:56:06.933Z,12.50
2018-01-11T21:58:34.397Z,12.40
2018-01-11T22:01:01.838Z,12.40
2018-01-11T22:03:30.033Z,12.30
2018-01-11T22:05:57.466Z,12.30
2018-01-11T22:08:25.665Z,12.20
2018-01-11T22:10:53.097Z,12.20
2018-01-11T22:13:21.302Z,12.10
2018-01-11T22:15:48.730Z,12.10
2018-01-11T22:18:16.943Z,12.00
2018-01-11T22:20:44.382Z,12.00
2018-01-11T22:23:11.817Z,12.00
2018-01-11T22:25:40.015Z,12.00
2018-01-11T22:28:08.210Z,12.00
2018-01-11T22:30:35.644Z,12.00
2018-01-11T22:33:03.846Z,11.90
2018-01-11T22:35:31.276Z,11.90
2018-01-11T22:37:58.718Z,11.90
2018-01-11T22:40:26.141Z,11.90
2018-01-11T22:42:53.593Z,11.90
2018-01-11T22:45:21.034Z,11.90
2018-01-11T22:47:48.489Z,11.90
2018-01-11T22:50:15.910Z,11.80
2018-01-11T22:52:44.121Z,11.80
2018-01-11T22:55:11.552Z,11.80
2018-01-11T22:57:39.005Z,11.70
2018-01-11T23:00:07.213Z,11.70
2018-01-11T23:02:34.721Z,11.70
2018-01-11T23:05:02.138Z,11.60
2018-01-11T23:07:30.337Z,11.50
2018-01-11T23:09:57.769Z,11.50
2018-01-11T23:12:25.984Z,11.50
2018-01-11T23:14:53.488Z,11.50
2018-01-11T23:17:20.920Z,11.50
2018-01-11T23:19:49.120Z,11.50
2018-01-11T23:22:16.538Z,11.50
2018-01-11T23:24:44.751Z,11.30
2018-01-11T23:27:12.187Z,11.30
2018-01-11T23:29:39.633Z,11.40
2018-01-11T23:32:07.848Z,11.30
2018-01-11T23:34:35.280Z,11.30
2018-01-11T23:37:03.473Z,11.30
2018-01-11T23:39:30.897Z,11.30
2018-01-11T23:41:59.134Z,11.40
2018-01-11T23:44:26.562Z,11.40
2018-01-11T23:46:53.993Z,11.40
2018-01-11T23:49:22.195Z,11.40
2018-01-11T23:51:49.628Z,11.30
2018-01-11T23:54:17.832Z,11.20
2018-01-11T23:56:45.269Z,11.20
2018-01-11T23:59:12.706Z,11.20
